sensor_id;sensor_type;location;lat;lon;timestamp;pressure;altitude;pressure_sealevel;temperature;humidity
4449;BME280;2237;51.870;6.160;2022-10-16T00:00:44;100901.16;;;14.37;100.00
4449;BME280;2237;51.870;6.160;2022-10-16T00:03:18;100902.19;;;14.33;100.00
4449;BME280;2237;51.870;6.160;2022-10-16T00:05:44;100896.19;;;14.29;100.00
4449;BME280;2237;51.870;6.160;2022-10-16T00:08:11;100908.53;;;14.26;100.00
4449;BME280;2237;51.870;6.160;2022-10-16T00:10:39;100907.72;;;14.24;100.00
4449;BME280;2237;51.870;6.160;2022-10-16T00:13:05;100906.09;;;14.21;100.00
4449;BME280;2237;51.870;6.160;2022-10-16T00:15:36;100895.59;;;14.21;100.00
4449;BME280;2237;51.870;6.160;2022-10-16T00:18:04;100901.75;;;14.20;100.00
4449;BME280;2237;51.870;6.160;2022-10-16T00:20:33;100897.38;;;14.21;100.00
4449;BME280;2237;51.870;6.160;2022-10-16T00:23:00;100902.72;;;14.18;100.00
4449;BME280;2237;51.870;6.160;2022-10-16T00:25:27;100899.41;;;14.12;100.00
4449;BME280;2237;51.870;6.160;2022-10-16T00:27:53;100903.59;;;14.16;100.00
4449;BME280;2237;51.870;6.160;2022-10-16T00:30:19;100899.34;;;14.14;100.00
4449;BME280;2237;51.870;6.160;2022-10-16T00:32:46;100902.06;;;14.11;100.00
4449;BME280;2237;51.870;6.160;2022-10-16T00:35:12;100901.34;;;14.07;100.00
4449;BME280;2237;51.870;6.160;2022-10-16T00:37:38;100905.66;;;14.08;100.00
4449;BME280;2237;51.870;6.160;2022-10-16T00:40:05;100906.59;;;14.07;100.00
4449;BME280;2237;51.870;6.160;2022-10-16T00:42:32;100916.31;;;14.04;100.00
4449;BME280;2237;51.870;6.160;2022-10-16T00:44:58;100905.81;;;14.04;100.00
4449;BME280;2237;51.870;6.160;2022-10-16T00:47:31;100901.50;;;14.03;100.00
4449;BME280;2237;51.870;6.160;2022-10-16T00:52:43;100902.28;;;14.05;100.00
4449;BME280;2237;51.870;6.160;2022-10-16T00:55:10;100912.97;;;13.99;100.00
4449;BME280;2237;51.870;6.160;2022-10-16T00:57:37;100915.72;;;13.96;100.00
4449;BME280;2237;51.870;6.160;2022-10-16T01:00:06;100903.56;;;13.93;100.00
4449;BME280;2237;51.870;6.160;2022-10-16T01:02:33;100903.56;;;13.93;100.00
4449;BME280;2237;51.870;6.160;2022-10-16T01:04:59;100898.31;;;13.93;100.00
4449;BME280;2237;51.870;6.160;2022-10-16T01:07:36;100898.44;;;13.90;100.00
4449;BME280;2237;51.870;6.160;2022-10-16T01:12:45;100910.59;;;13.93;100.00
4449;BME280;2237;51.870;6.160;2022-10-16T01:15:18;100915.94;;;13.90;100.00
4449;BME280;2237;51.870;6.160;2022-10-16T01:20:31;100909.84;;;13.89;100.00
4449;BME280;2237;51.870;6.160;2022-10-16T01:25:59;100909.06;;;13.86;100.00
4449;BME280;2237;51.870;6.160;2022-10-16T01:28:46;100907.31;;;13.86;100.00
4449;BME280;2237;51.870;6.160;2022-10-16T01:31:18;100896.09;;;13.83;100.00
4449;BME280;2237;51.870;6.160;2022-10-16T01:33:51;100900.56;;;13.79;100.00
4449;BME280;2237;51.870;6.160;2022-10-16T01:36:26;100902.22;;;13.82;100.00
4449;BME280;2237;51.870;6.160;2022-10-16T01:38:56;100918.66;;;13.87;100.00
4449;BME280;2237;51.870;6.160;2022-10-16T01:41:29;100906.53;;;13.84;100.00
4449;BME280;2237;51.870;6.160;2022-10-16T01:44:06;100904.75;;;13.85;100.00
4449;BME280;2237;51.870;6.160;2022-10-16T01:46:38;100912.56;;;13.86;100.00
4449;BME280;2237;51.870;6.160;2022-10-16T01:49:06;100914.25;;;13.87;100.00
4449;BME280;2237;51.870;6.160;2022-10-16T01:51:34;100904.69;;;13.86;100.00
4449;BME280;2237;51.870;6.160;2022-10-16T01:54:02;100908.88;;;13.92;100.00
4449;BME280;2237;51.870;6.160;2022-10-16T01:56:31;100905.34;;;13.93;100.00
4449;BME280;2237;51.870;6.160;2022-10-16T01:59:02;100900.84;;;13.96;100.00
4449;BME280;2237;51.870;6.160;2022-10-16T02:01:31;100907.88;;;13.96;100.00
4449;BME280;2237;51.870;6.160;2022-10-16T02:04:03;100916.63;;;13.95;100.00
4449;BME280;2237;51.870;6.160;2022-10-16T02:06:31;100915.72;;;13.96;100.00
4449;BME280;2237;51.870;6.160;2022-10-16T02:08:58;100912.97;;;13.99;100.00
4449;BME280;2237;51.870;6.160;2022-10-16T02:11:25;100905.19;;;13.97;100.00
4449;BME280;2237;51.870;6.160;2022-10-16T02:13:55;100916.34;;;14.02;100.00
4449;BME280;2237;51.870;6.160;2022-10-16T02:16:40;100919.94;;;14.00;100.00
4449;BME280;2237;51.870;6.160;2022-10-16T02:19:07;100915.81;;;13.93;100.00
4449;BME280;2237;51.870;6.160;2022-10-16T02:21:44;100922.72;;;13.95;100.00
4449;BME280;2237;51.870;6.160;2022-10-16T02:24:38;100913.94;;;13.96;100.00
4449;BME280;2237;51.870;6.160;2022-10-16T02:27:17;100928.47;;;14.05;100.00
4449;BME280;2237;51.870;6.160;2022-10-16T02:29:51;100937.41;;;13.99;100.00
4449;BME280;2237;51.870;6.160;2022-10-16T02:32:25;100932.88;;;14.04;100.00
4449;BME280;2237;51.870;6.160;2022-10-16T02:34:56;100927.69;;;14.03;100.00
4449;BME280;2237;51.870;6.160;2022-10-16T02:37:24;100917.78;;;14.11;100.00
4449;BME280;2237;51.870;6.160;2022-10-16T02:39:52;100911.75;;;14.09;100.00
4449;BME280;2237;51.870;6.160;2022-10-16T02:42:19;100919.53;;;14.10;100.00
4449;BME280;2237;51.870;6.160;2022-10-16T02:44:45;100915.03;;;14.15;100.00
4449;BME280;2237;51.870;6.160;2022-10-16T02:47:12;100911.53;;;14.15;100.00
4449;BME280;2237;51.870;6.160;2022-10-16T02:49:38;100914.16;;;14.15;100.00
4449;BME280;2237;51.870;6.160;2022-10-16T02:52:05;100909.88;;;14.12;100.00
4449;BME280;2237;51.870;6.160;2022-10-16T02:54:31;100915.22;;;14.09;100.00
4449;BME280;2237;51.870;6.160;2022-10-16T02:56:57;100915.22;;;14.09;100.00
4449;BME280;2237;51.870;6.160;2022-10-16T02:59:24;100912.59;;;14.09;100.00
4449;BME280;2237;51.870;6.160;2022-10-16T03:01:50;100913.56;;;14.07;100.00
4449;BME280;2237;51.870;6.160;2022-10-16T03:04:17;100917.16;;;14.04;100.00
4449;BME280;2237;51.870;6.160;2022-10-16T03:06:43;100917.28;;;14.01;100.00
4449;BME280;2237;51.870;6.160;2022-10-16T03:09:09;100907.69;;;14.00;100.00
4449;BME280;2237;51.870;6.160;2022-10-16T03:11:36;100900.72;;;13.99;100.00
4449;BME280;2237;51.870;6.160;2022-10-16T03:14:02;100910.34;;;13.99;100.00
4449;BME280;2237;51.870;6.160;2022-10-16T03:16:28;100906.91;;;13.98;100.00
4449;BME280;2237;51.870;6.160;2022-10-16T03:18:55;100902.75;;;13.93;100.00
4449;BME280;2237;51.870;6.160;2022-10-16T03:21:21;100907.13;;;13.92;100.00
4449;BME280;2237;51.870;6.160;2022-10-16T03:23:48;100902.78;;;13.91;100.00
4449;BME280;2237;51.870;6.160;2022-10-16T03:26:14;100914.97;;;13.92;100.00
4449;BME280;2237;51.870;6.160;2022-10-16T03:28:40;100925.44;;;13.92;100.00
4449;BME280;2237;51.870;6.160;2022-10-16T03:31:07;100917.78;;;13.86;100.00
4449;BME280;2237;51.870;6.160;2022-10-16T03:33:34;100919.47;;;13.87;100.00
4449;BME280;2237;51.870;6.160;2022-10-16T03:36:00;100929.94;;;13.87;100.00
4449;BME280;2237;51.870;6.160;2022-10-16T03:38:27;100931.69;;;13.88;100.00
4449;BME280;2237;51.870;6.160;2022-10-16T03:40:53;100937.88;;;13.86;100.00
4449;BME280;2237;51.870;6.160;2022-10-16T03:43:19;100934.34;;;13.87;100.00
4449;BME280;2237;51.870;6.160;2022-10-16T03:45:46;100941.56;;;13.80;100.00
4449;BME280;2237;51.870;6.160;2022-10-16T03:48:12;100950.28;;;13.81;100.00
4449;BME280;2237;51.870;6.160;2022-10-16T03:50:38;100959.13;;;13.77;100.00
4449;BME280;2237;51.870;6.160;2022-10-16T03:53:05;100954.75;;;13.77;100.00
4449;BME280;2237;51.870;6.160;2022-10-16T03:55:31;100952.81;;;13.82;100.00
4449;BME280;2237;51.870;6.160;2022-10-16T03:57:57;100949.63;;;13.74;100.00
4449;BME280;2237;51.870;6.160;2022-10-16T04:00:24;100935.72;;;13.72;100.00
4449;BME280;2237;51.870;6.160;2022-10-16T04:02:50;100940.09;;;13.72;100.00
4449;BME280;2237;51.870;6.160;2022-10-16T04:05:17;100943.41;;;13.77;100.00
4449;BME280;2237;51.870;6.160;2022-10-16T04:07:43;100942.56;;;13.76;100.00
4449;BME280;2237;51.870;6.160;2022-10-16T04:10:09;100950.38;;;13.78;100.00
4449;BME280;2237;51.870;6.160;2022-10-16T04:12:36;100952.88;;;13.81;100.00
4449;BME280;2237;51.870;6.160;2022-10-16T04:15:02;100954.69;;;13.79;100.00
4449;BME280;2237;51.870;6.160;2022-10-16T04:17:29;100952.13;;;13.77;100.00
4449;BME280;2237;51.870;6.160;2022-10-16T04:19:55;100961.81;;;13.75;100.00
4449;BME280;2237;51.870;6.160;2022-10-16T04:22:21;100970.50;;;13.76;100.00
4449;BME280;2237;51.870;6.160;2022-10-16T04:24:48;100973.25;;;13.73;100.00
4449;BME280;2237;51.870;6.160;2022-10-16T04:27:14;100968.00;;;13.73;100.00
4449;BME280;2237;51.870;6.160;2022-10-16T04:29:41;100979.41;;;13.70;100.00
4449;BME280;2237;51.870;6.160;2022-10-16T04:32:10;100977.72;;;13.69;100.00
4449;BME280;2237;51.870;6.160;2022-10-16T04:34:39;100982.19;;;13.66;100.00
4449;BME280;2237;51.870;6.160;2022-10-16T04:37:05;100986.56;;;13.65;100.00
4449;BME280;2237;51.870;6.160;2022-10-16T04:39:32;100977.72;;;13.69;100.00
4449;BME280;2237;51.870;6.160;2022-10-16T04:41:58;100982.34;;;13.61;100.00
4449;BME280;2237;51.870;6.160;2022-10-16T04:44:25;100984.03;;;13.62;100.00
4449;BME280;2237;51.870;6.160;2022-10-16T04:46:51;100987.44;;;13.64;100.00
4449;BME280;2237;51.870;6.160;2022-10-16T04:49:17;100995.28;;;13.64;100.00
4449;BME280;2237;51.870;6.160;2022-10-16T04:51:44;100991.84;;;13.64;100.00
4449;BME280;2237;51.870;6.160;2022-10-16T04:54:10;100986.63;;;13.64;100.00
4449;BME280;2237;51.870;6.160;2022-10-16T04:56:37;100997.03;;;13.65;100.00
4449;BME280;2237;51.870;6.160;2022-10-16T04:59:09;100995.53;;;13.58;100.00
4449;BME280;2237;51.870;6.160;2022-10-16T05:01:36;100997.91;;;13.64;100.00
4449;BME280;2237;51.870;6.160;2022-10-16T05:04:02;101000.66;;;13.61;100.00
4449;BME280;2237;51.870;6.160;2022-10-16T05:06:28;101004.16;;;13.60;100.00
4449;BME280;2237;51.870;6.160;2022-10-16T05:08:55;101006.81;;;13.58;100.00
4449;BME280;2237;51.870;6.160;2022-10-16T05:11:21;101009.59;;;13.54;100.00
4449;BME280;2237;51.870;6.160;2022-10-16T05:13:47;101017.19;;;13.62;100.00
4449;BME280;2237;51.870;6.160;2022-10-16T05:16:18;101025.19;;;13.57;100.00
4449;BME280;2237;51.870;6.160;2022-10-16T05:18:45;101016.56;;;13.55;100.00
4449;BME280;2237;51.870;6.160;2022-10-16T05:21:11;101027.03;;;13.55;100.00
4449;BME280;2237;51.870;6.160;2022-10-16T05:23:38;101028.72;;;13.56;100.00
4449;BME280;2237;51.870;6.160;2022-10-16T05:26:04;101034.88;;;13.55;100.00
4449;BME280;2237;51.870;6.160;2022-10-16T05:28:30;101036.56;;;13.56;100.00
4449;BME280;2237;51.870;6.160;2022-10-16T05:30:57;101041.00;;;13.54;100.00
4449;BME280;2237;51.870;6.160;2022-10-16T05:33:25;101044.66;;;13.48;100.00
4449;BME280;2237;51.870;6.160;2022-10-16T05:35:51;101042.91;;;13.49;100.00
4449;BME280;2237;51.870;6.160;2022-10-16T05:38:18;101055.25;;;13.44;100.00
4449;BME280;2237;51.870;6.160;2022-10-16T05:40:51;101059.75;;;13.40;100.00
4449;BME280;2237;51.870;6.160;2022-10-16T05:43:19;101062.47;;;13.36;100.00
4449;BME280;2237;51.870;6.160;2022-10-16T05:46:05;101065.06;;;13.37;100.00
4449;BME280;2237;51.870;6.160;2022-10-16T05:48:32;101074.66;;;13.37;100.00
4449;BME280;2237;51.870;6.160;2022-10-16T05:51:07;101073.81;;;13.36;100.00
4449;BME280;2237;51.870;6.160;2022-10-16T05:53:35;101074.88;;;13.29;100.00
4449;BME280;2237;51.870;6.160;2022-10-16T05:56:02;101082.88;;;13.25;100.00
4449;BME280;2237;51.870;6.160;2022-10-16T05:58:31;101095.00;;;13.27;100.00
4449;BME280;2237;51.870;6.160;2022-10-16T06:01:01;101094.91;;;13.30;100.00
4449;BME280;2237;51.870;6.160;2022-10-16T06:03:28;101095.06;;;13.26;100.00
4449;BME280;2237;51.870;6.160;2022-10-16T06:05:54;101102.03;;;13.25;100.00
4449;BME280;2237;51.870;6.160;2022-10-16T06:08:22;101109.91;;;13.24;100.00
4449;BME280;2237;51.870;6.160;2022-10-16T06:11:00;101127.41;;;13.22;100.00
4449;BME280;2237;51.870;6.160;2022-10-16T06:13:26;101128.38;;;13.19;100.00
4449;BME280;2237;51.870;6.160;2022-10-16T06:15:53;101136.22;;;13.19;100.00
4449;BME280;2237;51.870;6.160;2022-10-16T06:18:19;101134.47;;;13.20;100.00
4449;BME280;2237;51.870;6.160;2022-10-16T06:20:45;101143.19;;;13.19;100.00
4449;BME280;2237;51.870;6.160;2022-10-16T06:23:12;101142.25;;;13.21;100.00
4449;BME280;2237;51.870;6.160;2022-10-16T06:25:38;101146.66;;;13.19;100.00
4449;BME280;2237;51.870;6.160;2022-10-16T06:28:04;101135.31;;;13.20;100.00
4449;BME280;2237;51.870;6.160;2022-10-16T06:30:31;101146.53;;;13.24;100.00
4449;BME280;2237;51.870;6.160;2022-10-16T06:32:57;101147.56;;;13.18;100.00
4449;BME280;2237;51.870;6.160;2022-10-16T06:35:24;101150.94;;;13.22;100.00
4449;BME280;2237;51.870;6.160;2022-10-16T06:37:52;101158.53;;;13.31;100.00
4449;BME280;2237;51.870;6.160;2022-10-16T06:40:19;101161.09;;;13.32;100.00
4449;BME280;2237;51.870;6.160;2022-10-16T06:42:45;101160.19;;;13.35;100.00
4449;BME280;2237;51.870;6.160;2022-10-16T06:45:11;101165.41;;;13.35;100.00
4449;BME280;2237;51.870;6.160;2022-10-16T06:47:38;101156.56;;;13.39;100.00
4449;BME280;2237;51.870;6.160;2022-10-16T06:50:05;101169.63;;;13.40;100.00
4449;BME280;2237;51.870;6.160;2022-10-16T06:52:33;101173.81;;;13.46;100.00
4449;BME280;2237;51.870;6.160;2022-10-16T06:55:00;101176.25;;;13.52;100.00
4449;BME280;2237;51.870;6.160;2022-10-16T06:57:26;101184.03;;;13.55;100.00
4449;BME280;2237;51.870;6.160;2022-10-16T06:59:53;101174.44;;;13.54;100.00
4449;BME280;2237;51.870;6.160;2022-10-16T07:02:20;101182.75;;;13.68;100.00
4449;BME280;2237;51.870;6.160;2022-10-16T07:04:47;101182.41;;;13.79;100.00
4449;BME280;2237;51.870;6.160;2022-10-16T07:07:13;101190.75;;;13.93;100.00
4449;BME280;2237;51.870;6.160;2022-10-16T07:09:40;101204.41;;;14.02;100.00
4449;BME280;2237;51.870;6.160;2022-10-16T07:12:06;101197.06;;;14.13;100.00
4449;BME280;2237;51.870;6.160;2022-10-16T07:14:33;101202.13;;;14.20;100.00
4449;BME280;2237;51.870;6.160;2022-10-16T07:16:59;101207.06;;;14.29;100.00
4449;BME280;2237;51.870;6.160;2022-10-16T07:19:25;101211.00;;;14.43;100.00
4449;BME280;2237;51.870;6.160;2022-10-16T07:21:57;101218.56;;;14.52;100.00
4449;BME280;2237;51.870;6.160;2022-10-16T07:24:23;101220.41;;;14.50;100.00
4449;BME280;2237;51.870;6.160;2022-10-16T07:26:50;101230.72;;;14.55;100.00
4449;BME280;2237;51.870;6.160;2022-10-16T07:29:20;101235.47;;;14.70;100.00
4449;BME280;2237;51.870;6.160;2022-10-16T07:31:48;101222.28;;;14.71;100.00
4449;BME280;2237;51.870;6.160;2022-10-16T07:34:16;101236.03;;;14.80;100.00
4449;BME280;2237;51.870;6.160;2022-10-16T07:36:43;101238.84;;;14.74;100.00
4449;BME280;2237;51.870;6.160;2022-10-16T07:39:10;101236.06;;;14.78;100.00
4449;BME280;2237;51.870;6.160;2022-10-16T07:41:36;101247.22;;;14.85;100.00
4449;BME280;2237;51.870;6.160;2022-10-16T07:44:03;101263.72;;;14.88;100.00
4449;BME280;2237;51.870;6.160;2022-10-16T07:46:30;101258.97;;;14.99;100.00
4449;BME280;2237;51.870;6.160;2022-10-16T07:48:57;101261.50;;;15.02;100.00
4449;BME280;2237;51.870;6.160;2022-10-16T07:51:25;101266.66;;;15.04;100.00
4449;BME280;2237;51.870;6.160;2022-10-16T07:53:52;101264.69;;;15.10;100.00
4449;BME280;2237;51.870;6.160;2022-10-16T07:56:20;101268.28;;;15.08;100.00
4449;BME280;2237;51.870;6.160;2022-10-16T07:58:47;101277.34;;;14.99;100.00
4449;BME280;2237;51.870;6.160;2022-10-16T08:01:16;101277.53;;;14.93;100.00
4449;BME280;2237;51.870;6.160;2022-10-16T08:03:45;101284.59;;;14.91;100.00
4449;BME280;2237;51.870;6.160;2022-10-16T08:06:11;101279.66;;;14.82;100.00
4449;BME280;2237;51.870;6.160;2022-10-16T08:08:38;101297.06;;;14.83;100.00
4449;BME280;2237;51.870;6.160;2022-10-16T08:11:04;101294.25;;;14.89;100.00
4449;BME280;2237;51.870;6.160;2022-10-16T08:13:31;101296.66;;;14.97;100.00
4449;BME280;2237;51.870;6.160;2022-10-16T08:15:58;101293.06;;;14.99;100.00
4449;BME280;2237;51.870;6.160;2022-10-16T08:18:24;101290.28;;;15.04;100.00
4449;BME280;2237;51.870;6.160;2022-10-16T08:20:58;101290.94;;;15.10;100.00
4449;BME280;2237;51.870;6.160;2022-10-16T09:22:47;101385.94;;;14.92;100.00
4449;BME280;2237;51.870;6.160;2022-10-16T09:25:19;101392.16;;;15.17;100.00
4449;BME280;2237;51.870;6.160;2022-10-16T09:27:48;101394.94;;;15.39;100.00
4449;BME280;2237;51.870;6.160;2022-10-16T09:30:18;101377.47;;;15.64;100.00
4449;BME280;2237;51.870;6.160;2022-10-16T09:32:46;101384.81;;;15.79;100.00
4449;BME280;2237;51.870;6.160;2022-10-16T09:35:17;101376.06;;;15.79;100.00
4449;BME280;2237;51.870;6.160;2022-10-16T09:37:45;101376.13;;;16.02;100.00
4449;BME280;2237;51.870;6.160;2022-10-16T09:40:27;101383.06;;;16.05;100.00
4449;BME280;2237;51.870;6.160;2022-10-16T09:43:41;101375.78;;;16.11;100.00
4449;BME280;2237;51.870;6.160;2022-10-16T09:45:57;101389.91;;;16.32;100.00
4449;BME280;2237;51.870;6.160;2022-10-16T09:48:29;101378.53;;;16.31;100.00
4449;BME280;2237;51.870;6.160;2022-10-16T09:51:01;101392.19;;;16.43;100.00
4449;BME280;2237;51.870;6.160;2022-10-16T09:53:42;101389.28;;;16.49;100.00
4449;BME280;2237;51.870;6.160;2022-10-16T09:56:11;101400.47;;;16.55;100.00
4449;BME280;2237;51.870;6.160;2022-10-16T09:58:50;101402.53;;;16.70;100.00
4449;BME280;2237;51.870;6.160;2022-10-16T10:01:18;101404.31;;;17.13;100.00
4449;BME280;2237;51.870;6.160;2022-10-16T10:03:45;101409.72;;;17.32;100.00
4449;BME280;2237;51.870;6.160;2022-10-16T10:06:30;101396.56;;;17.10;100.00
4449;BME280;2237;51.870;6.160;2022-10-16T10:11:37;101413.31;;;16.86;100.00
4449;BME280;2237;51.870;6.160;2022-10-16T10:14:18;101408.97;;;16.85;100.00
4449;BME280;2237;51.870;6.160;2022-10-16T10:16:46;101406.34;;;16.85;100.00
4449;BME280;2237;51.870;6.160;2022-10-16T10:19:18;101410.56;;;16.89;100.00
4449;BME280;2237;51.870;6.160;2022-10-16T10:21:45;101417.19;;;16.99;100.00
4449;BME280;2237;51.870;6.160;2022-10-16T10:24:14;101416.47;;;17.17;100.00
4449;BME280;2237;51.870;6.160;2022-10-16T10:26:54;101424.69;;;17.30;100.00
4449;BME280;2237;51.870;6.160;2022-10-16T10:32:27;101423.72;;;17.54;100.00
4449;BME280;2237;51.870;6.160;2022-10-16T10:35:16;101417.94;;;17.44;97.47
4449;BME280;2237;51.870;6.160;2022-10-16T10:37:55;101417.50;;;17.35;97.76
4449;BME280;2237;51.870;6.160;2022-10-16T10:40:47;101421.81;;;17.36;98.21
4449;BME280;2237;51.870;6.160;2022-10-16T10:46:29;101427.66;;;17.22;97.59
4449;BME280;2237;51.870;6.160;2022-10-16T10:49:09;101434.44;;;17.28;95.75
4449;BME280;2237;51.870;6.160;2022-10-16T10:54:14;101434.63;;;17.45;92.51
4449;BME280;2237;51.870;6.160;2022-10-16T10:56:58;101443.25;;;17.70;91.82
4449;BME280;2237;51.870;6.160;2022-10-16T11:02:41;101438.06;;;17.89;89.06
4449;BME280;2237;51.870;6.160;2022-10-16T11:05:26;101449.31;;;17.72;88.42
4449;BME280;2237;51.870;6.160;2022-10-16T11:08:15;101449.84;;;17.80;88.42
4449;BME280;2237;51.870;6.160;2022-10-16T11:10:56;101441.09;;;18.00;88.87
4449;BME280;2237;51.870;6.160;2022-10-16T11:13:32;101438.13;;;18.28;85.67
4449;BME280;2237;51.870;6.160;2022-10-16T11:16:15;101441.53;;;18.50;80.84
4449;BME280;2237;51.870;6.160;2022-10-16T11:18:56;101445.81;;;18.52;79.20
4449;BME280;2237;51.870;6.160;2022-10-16T11:21:26;101445.19;;;18.46;80.47
4449;BME280;2237;51.870;6.160;2022-10-16T11:24:01;101455.94;;;18.41;81.86
4449;BME280;2237;51.870;6.160;2022-10-16T11:26:39;101454.03;;;18.45;79.51
4449;BME280;2237;51.870;6.160;2022-10-16T11:29:17;101447.91;;;18.44;76.44
4449;BME280;2237;51.870;6.160;2022-10-16T11:31:50;101442.53;;;18.27;71.74
4449;BME280;2237;51.870;6.160;2022-10-16T11:34:25;101445.44;;;18.21;73.19
4449;BME280;2237;51.870;6.160;2022-10-16T11:37:10;101448.72;;;18.26;74.30
4449;BME280;2237;51.870;6.160;2022-10-16T11:39:39;101448.06;;;18.21;72.71
4449;BME280;2237;51.870;6.160;2022-10-16T11:42:22;101443.06;;;18.15;71.81
4449;BME280;2237;51.870;6.160;2022-10-16T11:45:11;101450.25;;;18.12;70.16
4449;BME280;2237;51.870;6.160;2022-10-16T11:47:43;101450.50;;;18.05;70.52
4449;BME280;2237;51.870;6.160;2022-10-16T11:51:05;101451.34;;;18.26;72.11
4449;BME280;2237;51.870;6.160;2022-10-16T11:53:50;101448.25;;;18.76;72.04
4449;BME280;2237;51.870;6.160;2022-10-16T11:56:20;101453.31;;;18.99;71.33
4449;BME280;2237;51.870;6.160;2022-10-16T11:59:17;101459.44;;;19.18;68.95
4449;BME280;2237;51.870;6.160;2022-10-16T12:01:51;101461.28;;;19.16;66.81
4449;BME280;2237;51.870;6.160;2022-10-16T12:07:39;101469.97;;;19.01;65.67
4449;BME280;2237;51.870;6.160;2022-10-16T12:10:20;101472.78;;;18.96;64.13
4449;BME280;2237;51.870;6.160;2022-10-16T12:12:53;101474.88;;;19.08;65.93
4449;BME280;2237;51.870;6.160;2022-10-16T12:18:07;101479.34;;;19.25;64.96
4449;BME280;2237;51.870;6.160;2022-10-16T12:20:54;101472.91;;;19.49;65.85
4449;BME280;2237;51.870;6.160;2022-10-16T12:23:25;101474.00;;;19.62;64.21
4449;BME280;2237;51.870;6.160;2022-10-16T12:25:56;101476.81;;;19.77;64.11
4449;BME280;2237;51.870;6.160;2022-10-16T12:28:28;101471.22;;;19.83;63.52
4449;BME280;2237;51.870;6.160;2022-10-16T12:33:31;101475.59;;;19.84;63.24
4449;BME280;2237;51.870;6.160;2022-10-16T12:36:00;101478.06;;;19.87;63.62
4449;BME280;2237;51.870;6.160;2022-10-16T12:38:34;101475.34;;;19.88;62.43
4449;BME280;2237;51.870;6.160;2022-10-16T12:41:05;101481.59;;;19.87;63.00
4449;BME280;2237;51.870;6.160;2022-10-16T12:43:41;101478.38;;;19.98;62.78
4449;BME280;2237;51.870;6.160;2022-10-16T12:48:42;101482.16;;;20.28;61.86
4449;BME280;2237;51.870;6.160;2022-10-16T12:57:26;101493.00;;;20.22;59.70
4449;BME280;2237;51.870;6.160;2022-10-16T13:00:15;101490.25;;;20.58;57.89
4449;BME280;2237;51.870;6.160;2022-10-16T13:11:11;101489.91;;;24.88;45.86
4449;BME280;2237;51.870;6.160;2022-10-16T13:16:35;101480.13;;;32.55;28.26
4449;BME280;2237;51.870;6.160;2022-10-16T13:21:46;101473.16;;;38.26;21.75
4449;BME280;2237;51.870;6.160;2022-10-16T13:24:25;101476.06;;;40.58;17.71
4449;BME280;2237;51.870;6.160;2022-10-16T13:29:33;101463.72;;;43.40;15.28
4449;BME280;2237;51.870;6.160;2022-10-16T13:32:01;101471.72;;;44.40;14.55
4449;BME280;2237;51.870;6.160;2022-10-16T13:34:43;101467.78;;;45.28;13.82
4449;BME280;2237;51.870;6.160;2022-10-16T13:37:21;101467.31;;;45.64;13.06
4449;BME280;2237;51.870;6.160;2022-10-16T13:39:48;101467.13;;;45.66;12.63
4449;BME280;2237;51.870;6.160;2022-10-16T13:42:23;101480.09;;;45.70;12.44
4449;BME280;2237;51.870;6.160;2022-10-16T13:44:55;101477.56;;;45.52;12.78
4449;BME280;2237;51.870;6.160;2022-10-16T13:47:27;101466.44;;;46.30;12.80
4449;BME280;2237;51.870;6.160;2022-10-16T13:50:16;101467.78;;;46.66;11.64
4449;BME280;2237;51.870;6.160;2022-10-16T13:52:43;101458.28;;;46.19;12.28
4449;BME280;2237;51.870;6.160;2022-10-16T13:55:18;101456.56;;;46.73;11.91
4449;BME280;2237;51.870;6.160;2022-10-16T13:57:44;101469.66;;;44.99;12.23
4449;BME280;2237;51.870;6.160;2022-10-16T14:00:26;101468.91;;;46.10;12.41
4449;BME280;2237;51.870;6.160;2022-10-16T14:03:07;101459.59;;;46.33;11.33
4449;BME280;2237;51.870;6.160;2022-10-16T14:05:44;101471.91;;;43.69;12.51
4449;BME280;2237;51.870;6.160;2022-10-16T14:08:13;101472.31;;;39.61;15.68
4449;BME280;2237;51.870;6.160;2022-10-16T14:10:40;101459.44;;;37.43;18.12
4449;BME280;2237;51.870;6.160;2022-10-16T14:13:07;101456.41;;;38.57;17.50
4449;BME280;2237;51.870;6.160;2022-10-16T14:15:35;101467.22;;;37.46;18.24
4449;BME280;2237;51.870;6.160;2022-10-16T14:18:03;101461.66;;;37.54;18.50
4449;BME280;2237;51.870;6.160;2022-10-16T14:20:32;101461.34;;;38.40;18.25
4449;BME280;2237;51.870;6.160;2022-10-16T14:25:48;101472.66;;;40.70;16.61
4449;BME280;2237;51.870;6.160;2022-10-16T14:28:22;101477.78;;;40.40;16.47
4449;BME280;2237;51.870;6.160;2022-10-16T14:30:59;101475.28;;;38.30;18.16
4449;BME280;2237;51.870;6.160;2022-10-16T14:38:26;101474.34;;;30.54;26.87
4449;BME280;2237;51.870;6.160;2022-10-16T14:40:52;101482.75;;;29.26;29.04
4449;BME280;2237;51.870;6.160;2022-10-16T14:45:56;101459.28;;;27.34;33.14
4449;BME280;2237;51.870;6.160;2022-10-16T14:48:23;101460.66;;;26.62;34.68
4449;BME280;2237;51.870;6.160;2022-10-16T14:50:50;101466.91;;;26.05;36.36
4449;BME280;2237;51.870;6.160;2022-10-16T14:53:17;101464.66;;;25.53;37.56
4449;BME280;2237;51.870;6.160;2022-10-16T14:55:44;101462.59;;;24.97;38.13
4449;BME280;2237;51.870;6.160;2022-10-16T14:58:16;101462.84;;;24.56;39.44
4449;BME280;2237;51.870;6.160;2022-10-16T15:00:44;101470.00;;;24.30;40.56
4449;BME280;2237;51.870;6.160;2022-10-16T15:03:10;101476.69;;;24.10;41.86
4449;BME280;2237;51.870;6.160;2022-10-16T15:05:37;101477.41;;;24.00;42.04
4449;BME280;2237;51.870;6.160;2022-10-16T15:08:03;101474.84;;;23.98;42.56
4449;BME280;2237;51.870;6.160;2022-10-16T15:10:33;101465.25;;;23.96;42.84
4449;BME280;2237;51.870;6.160;2022-10-16T15:13:02;101462.25;;;23.88;44.12
4449;BME280;2237;51.870;6.160;2022-10-16T15:15:37;101468.84;;;23.82;44.89
4449;BME280;2237;51.870;6.160;2022-10-16T15:18:04;101470.75;;;23.80;44.62
4449;BME280;2237;51.870;6.160;2022-10-16T15:20:35;101470.53;;;23.71;45.17
4449;BME280;2237;51.870;6.160;2022-10-16T15:23:03;101469.41;;;23.48;47.00
4449;BME280;2237;51.870;6.160;2022-10-16T15:28:02;101468.91;;;23.00;49.04
4449;BME280;2237;51.870;6.160;2022-10-16T15:30:29;101462.78;;;22.72;50.72